createdAt,value
2022-09-30T00:01:34.284Z,6.65
2022-09-30T00:04:02.568Z,8.75
2022-09-30T00:06:31.308Z,8.10
2022-09-30T00:08:58.996Z,8.13
2022-09-30T00:11:30.072Z,7.20
2022-09-30T00:16:28.350Z,6.70
2022-09-30T00:18:57.677Z,7.55
2022-09-30T00:21:25.382Z,8.38
2022-09-30T00:23:52.895Z,7.93
2022-09-30T00:26:23.281Z,6.45
2022-09-30T00:28:56.271Z,7.40
2022-09-30T00:31:25.529Z,6.88
2022-09-30T00:34:08.195Z,7.75
2022-09-30T00:36:47.427Z,7.47
2022-09-30T00:39:21.501Z,8.45
2022-09-30T00:41:52.641Z,9.45
2022-09-30T00:44:44.285Z,10.38
2022-09-30T00:47:36.594Z,8.77
2022-09-30T00:50:21.374Z,9.38
2022-09-30T00:53:04.484Z,8.38
2022-09-30T00:55:36.660Z,8.50
2022-09-30T00:58:08.112Z,9.45
2022-09-30T01:00:36.094Z,8.95
2022-09-30T01:03:04.645Z,9.65
2022-09-30T01:05:33.471Z,10.65
2022-09-30T01:08:03.641Z,12.60
2022-09-30T01:10:31.100Z,8.02
2022-09-30T01:12:59.548Z,9.15
2022-09-30T01:15:50.767Z,8.98
2022-09-30T01:18:44.316Z,11.52
2022-09-30T01:21:27.823Z,10.10
2022-09-30T01:24:06.806Z,9.95
2022-09-30T01:26:59.956Z,9.25
2022-09-30T01:30:25.529Z,9.50
2022-09-30T01:33:04.024Z,9.18
2022-09-30T01:35:56.119Z,7.95
2022-09-30T01:38:48.438Z,8.68
2022-09-30T01:41:28.184Z,9.70
2022-09-30T01:44:09.182Z,11.68
2022-09-30T01:46:48.124Z,12.00
2022-09-30T01:49:32.435Z,9.30
2022-09-30T01:52:06.315Z,8.77
2022-09-30T01:54:41.565Z,8.48
2022-09-30T01:57:22.284Z,8.93
2022-09-30T02:00:04.253Z,25.75
2022-09-30T02:02:35.912Z,12.23
2022-09-30T02:05:15.689Z,11.38
2022-09-30T02:07:55.629Z,7.82
2022-09-30T02:10:33.090Z,14.00
2022-09-30T02:13:11.244Z,10.10
2022-09-30T02:15:43.499Z,9.38
2022-09-30T02:18:22.544Z,9.63
2022-09-30T02:20:53.380Z,9.60
2022-09-30T02:23:28.918Z,8.95
2022-09-30T02:26:07.250Z,10.88
2022-09-30T02:28:40.942Z,11.18
2022-09-30T02:31:11.320Z,12.07
2022-09-30T02:33:45.239Z,10.98
2022-09-30T02:36:27.691Z,17.67
2022-09-30T02:39:25.505Z,10.18
2022-09-30T02:42:00.424Z,11.10
2022-09-30T02:44:29.418Z,20.08
2022-09-30T02:47:17.286Z,10.18
2022-09-30T02:49:49.792Z,9.75
2022-09-30T02:52:23.992Z,8.88
2022-09-30T02:55:03.325Z,11.18
2022-09-30T02:58:05.612Z,8.93
2022-09-30T03:00:33.153Z,10.05
2022-09-30T03:03:15.103Z,9.40
2022-09-30T03:05:43.258Z,9.90
2022-09-30T03:08:11.808Z,9.98
2022-09-30T03:10:39.800Z,8.57
2022-09-30T03:13:48.861Z,7.75
2022-09-30T03:16:49.627Z,7.90
2022-09-30T03:19:25.683Z,8.60
2022-09-30T03:22:12.037Z,8.38
2022-09-30T03:25:07.196Z,8.63
2022-09-30T03:27:53.257Z,7.47
2022-09-30T03:30:27.079Z,8.25
2022-09-30T03:33:06.210Z,7.78
2022-09-30T03:35:41.515Z,8.80
2022-09-30T03:38:40.346Z,7.80
2022-09-30T03:41:27.523Z,8.80
2022-09-30T03:44:04.812Z,8.95
2022-09-30T03:47:03.203Z,8.05
2022-09-30T03:49:35.999Z,7.93
2022-09-30T03:52:09.119Z,9.27
2022-09-30T03:54:55.185Z,9.32
2022-09-30T03:57:22.590Z,8.88
2022-09-30T03:59:50.293Z,10.98
2022-09-30T04:02:17.698Z,10.50
2022-09-30T04:04:45.132Z,9.85
2022-09-30T04:07:13.046Z,10.35
2022-09-30T04:09:40.960Z,9.75
2022-09-30T04:12:08.726Z,10.05
2022-09-30T04:14:36.671Z,10.65
2022-09-30T04:17:05.388Z,11.27
2022-09-30T04:19:38.119Z,11.23
2022-09-30T04:22:06.298Z,12.57
2022-09-30T04:24:33.976Z,11.30
2022-09-30T04:27:01.709Z,11.63
2022-09-30T04:29:29.187Z,11.88
2022-09-30T04:31:57.057Z,11.98
2022-09-30T04:34:24.501Z,11.35
2022-09-30T04:36:52.029Z,11.45
2022-09-30T04:39:19.428Z,11.20
2022-09-30T04:41:46.910Z,12.07
2022-09-30T04:44:14.317Z,11.80
2022-09-30T04:46:43.200Z,11.00
2022-09-30T04:49:10.630Z,11.25
2022-09-30T04:51:38.555Z,11.05
2022-09-30T04:54:06.135Z,11.30
2022-09-30T04:56:33.505Z,11.70
2022-09-30T04:59:00.896Z,11.38
2022-09-30T05:01:28.342Z,11.23
2022-09-30T05:03:55.900Z,10.48
2022-09-30T05:06:23.281Z,11.98
2022-09-30T05:08:50.661Z,11.40
2022-09-30T05:11:20.448Z,11.27
2022-09-30T05:13:48.760Z,12.65
2022-09-30T05:16:17.451Z,13.45
2022-09-30T05:18:48.161Z,11.93
2022-09-30T05:21:19.606Z,12.40
2022-09-30T05:23:47.334Z,11.45
2022-09-30T05:26:14.889Z,12.98
2022-09-30T05:28:42.714Z,15.45
2022-09-30T05:31:12.248Z,13.43
2022-09-30T05:33:40.511Z,13.25
2022-09-30T05:36:09.713Z,15.00
2022-09-30T05:38:37.170Z,15.15
2022-09-30T05:41:13.365Z,14.63
2022-09-30T05:43:42.255Z,13.45
2022-09-30T05:46:09.682Z,15.18
2022-09-30T05:48:37.141Z,14.35
2022-09-30T05:51:04.767Z,14.25
2022-09-30T05:53:32.508Z,14.55
2022-09-30T05:56:00.592Z,12.93
2022-09-30T05:58:27.926Z,13.98
2022-09-30T06:00:55.466Z,13.25
2022-09-30T06:03:23.186Z,13.32
2022-09-30T06:05:57.005Z,13.98
2022-09-30T06:08:25.086Z,29.25
2022-09-30T06:10:52.903Z,41.95
2022-09-30T06:13:21.532Z,14.93
2022-09-30T06:15:59.224Z,12.70
2022-09-30T06:18:31.201Z,11.93
2022-09-30T06:21:00.300Z,10.52
2022-09-30T06:23:29.397Z,12.80
2022-09-30T06:25:57.575Z,13.02
2022-09-30T06:28:25.184Z,12.95
2022-09-30T06:30:54.302Z,12.98
2022-09-30T06:33:23.194Z,13.77
2022-09-30T06:35:51.273Z,14.52
2022-09-30T06:38:18.802Z,13.80
2022-09-30T06:40:50.174Z,13.43
2022-09-30T06:43:18.360Z,14.95
2022-09-30T06:45:47.665Z,14.60
2022-09-30T06:48:17.697Z,12.93
2022-09-30T06:50:59.098Z,18.50
2022-09-30T06:53:29.330Z,14.90
2022-09-30T06:55:57.874Z,13.38
2022-09-30T06:58:25.896Z,15.30
2022-09-30T07:01:03.767Z,16.33
2022-09-30T07:03:34.045Z,15.48
2022-09-30T07:06:04.990Z,15.55
2022-09-30T07:08:34.408Z,15.07
2022-09-30T07:11:04.533Z,15.68
2022-09-30T07:13:33.257Z,15.00
2022-09-30T07:16:00.788Z,15.75
2022-09-30T07:18:28.803Z,14.60
2022-09-30T07:20:57.388Z,16.08
2022-09-30T07:23:27.199Z,14.93
2022-09-30T07:26:00.665Z,16.30
2022-09-30T07:28:32.127Z,16.48
2022-09-30T07:33:51.250Z,14.60
2022-09-30T07:36:26.155Z,14.88
2022-09-30T07:38:56.801Z,16.08
2022-09-30T07:41:29.184Z,14.57
2022-09-30T07:43:59.258Z,16.15
2022-09-30T07:46:30.951Z,15.67
2022-09-30T07:49:06.236Z,15.75
2022-09-30T07:51:37.139Z,17.30
2022-09-30T07:54:08.164Z,16.60
2022-09-30T07:59:27.380Z,15.52
2022-09-30T08:01:55.705Z,15.18
2022-09-30T08:04:25.307Z,16.55
2022-09-30T08:06:56.425Z,18.17
2022-09-30T08:11:53.489Z,16.33
2022-09-30T08:14:26.291Z,18.75
2022-09-30T08:16:55.844Z,17.80
2022-09-30T08:19:24.789Z,17.55
2022-09-30T08:21:55.965Z,17.58
2022-09-30T08:24:24.412Z,17.40
2022-09-30T08:26:52.862Z,17.77
2022-09-30T08:29:35.750Z,18.13
2022-09-30T08:32:08.100Z,18.10
2022-09-30T08:34:35.912Z,18.92
2022-09-30T08:37:08.839Z,16.17
2022-09-30T08:39:38.586Z,16.20
2022-09-30T08:42:36.682Z,18.15
2022-09-30T08:45:18.634Z,17.77
2022-09-30T08:51:22.836Z,17.50
2022-09-30T08:53:51.019Z,16.55
2022-09-30T08:56:25.881Z,17.15
2022-09-30T08:59:21.680Z,16.77
2022-09-30T09:01:54.168Z,16.88
2022-09-30T09:04:21.772Z,17.35
2022-09-30T09:06:56.670Z,17.60
2022-09-30T09:09:51.398Z,18.73
2022-09-30T09:12:27.547Z,17.58
2022-09-30T09:14:58.001Z,17.52
2022-09-30T09:17:28.117Z,16.10
2022-09-30T09:20:14.492Z,17.00
2022-09-30T09:22:44.414Z,17.08
2022-09-30T09:25:26.906Z,16.40
2022-09-30T09:28:06.129Z,15.75
2022-09-30T09:30:43.551Z,15.82
2022-09-30T09:33:31.533Z,15.40
2022-09-30T09:36:17.734Z,16.05
2022-09-30T09:38:54.224Z,14.88
2022-09-30T09:41:49.555Z,14.90
2022-09-30T09:44:43.021Z,16.17
2022-09-30T09:47:17.233Z,14.75
2022-09-30T09:49:57.565Z,14.50
2022-09-30T09:52:44.818Z,13.43
2022-09-30T09:55:13.326Z,13.45
2022-09-30T09:57:41.689Z,14.40
2022-09-30T10:00:39.542Z,13.05
2022-09-30T10:03:22.062Z,13.80
2022-09-30T10:06:04.473Z,11.73
2022-09-30T10:08:35.892Z,12.38
2022-09-30T10:11:18.318Z,12.70
2022-09-30T10:13:46.028Z,12.52
2022-09-30T10:16:46.258Z,13.70
2022-09-30T10:19:26.477Z,12.35
2022-09-30T10:22:09.068Z,11.90
2022-09-30T10:24:38.876Z,11.82
2022-09-30T10:27:27.180Z,11.43
2022-09-30T10:29:54.636Z,11.55
2022-09-30T10:32:23.180Z,11.63
2022-09-30T10:35:19.620Z,10.68
2022-09-30T10:37:54.905Z,10.88
2022-09-30T10:40:27.577Z,10.20
2022-09-30T10:42:56.588Z,9.05
2022-09-30T10:45:38.767Z,7.68
2022-09-30T10:48:15.943Z,7.35
2022-09-30T10:50:53.131Z,7.88
2022-09-30T10:53:30.032Z,6.93
2022-09-30T10:55:58.028Z,6.68
2022-09-30T10:58:41.761Z,6.63
2022-09-30T11:01:38.825Z,6.50
2022-09-30T11:04:17.086Z,6.22
2022-09-30T11:06:47.328Z,6.22
2022-09-30T11:09:22.328Z,5.43
2022-09-30T11:11:56.760Z,5.50
2022-09-30T11:14:33.925Z,4.50
2022-09-30T11:17:10.443Z,4.53
2022-09-30T11:19:53.245Z,4.45
2022-09-30T11:22:33.039Z,3.40
2022-09-30T11:25:00.621Z,3.55
2022-09-30T11:27:47.875Z,3.90
2022-09-30T11:30:24.632Z,3.50
2022-09-30T11:33:13.686Z,3.67
2022-09-30T11:35:56.452Z,3.50
2022-09-30T11:38:26.621Z,3.55
2022-09-30T11:41:21.210Z,3.50
2022-09-30T11:43:50.516Z,2.97
2022-09-30T11:46:25.642Z,3.20
2022-09-30T11:49:30.926Z,3.35
2022-09-30T11:52:17.409Z,3.35
2022-09-30T11:54:56.793Z,3.58
2022-09-30T11:57:37.489Z,3.35
2022-09-30T12:00:17.516Z,3.70
2022-09-30T12:02:50.056Z,3.35
2022-09-30T12:05:35.367Z,3.70
2022-09-30T12:08:33.984Z,3.55
2022-09-30T12:11:23.218Z,3.72
2022-09-30T12:14:00.056Z,3.17
2022-09-30T12:16:31.940Z,3.92
2022-09-30T12:19:15.536Z,3.85
2022-09-30T12:21:53.228Z,3.40
2022-09-30T12:24:24.636Z,3.58
2022-09-30T12:26:52.104Z,3.13
2022-09-30T12:29:54.045Z,2.85
2022-09-30T12:32:36.215Z,2.88
2022-09-30T12:35:25.838Z,2.40
2022-09-30T12:38:19.077Z,2.55
2022-09-30T12:41:07.616Z,2.53
2022-09-30T12:44:16.697Z,2.00
2022-09-30T12:47:02.528Z,2.45
2022-09-30T12:49:33.167Z,2.38
2022-09-30T12:52:06.834Z,2.45
2022-09-30T12:54:58.772Z,2.40
2022-09-30T12:57:29.601Z,2.10
2022-09-30T13:00:04.929Z,1.88
2022-09-30T13:02:37.709Z,2.00
2022-09-30T13:05:42.862Z,2.17
2022-09-30T13:08:25.875Z,1.85
2022-09-30T13:10:59.684Z,1.90
2022-09-30T13:13:37.069Z,1.83
2022-09-30T13:16:06.224Z,1.77
2022-09-30T13:18:33.616Z,1.80
2022-09-30T13:21:08.259Z,1.98
2022-09-30T13:23:53.876Z,1.80
2022-09-30T13:26:31.995Z,2.25
2022-09-30T13:29:02.754Z,2.15
2022-09-30T13:31:52.886Z,2.10
2022-09-30T13:34:27.409Z,2.55
2022-09-30T13:37:02.232Z,2.13
2022-09-30T13:39:50.056Z,2.25
2022-09-30T13:42:24.596Z,2.25
2022-09-30T13:45:11.009Z,2.33
2022-09-30T13:47:50.718Z,2.40
2022-09-30T13:50:35.232Z,2.10
2022-09-30T13:53:08.049Z,2.30
2022-09-30T13:55:45.247Z,2.30
2022-09-30T13:58:27.761Z,2.35
2022-09-30T14:01:13.299Z,3.05
2022-09-30T14:03:56.011Z,2.40
2022-09-30T14:06:42.129Z,2.17
2022-09-30T14:09:43.452Z,2.30
2022-09-30T14:12:31.833Z,1.98
2022-09-30T14:15:18.352Z,1.90
2022-09-30T14:18:07.008Z,1.95
2022-09-30T14:21:04.811Z,2.92
2022-09-30T14:23:32.272Z,2.25
2022-09-30T14:26:21.344Z,2.20
2022-09-30T14:29:06.380Z,2.30
2022-09-30T14:31:34.006Z,1.80
2022-09-30T14:34:02.158Z,2.22
2022-09-30T14:36:30.013Z,2.20
2022-09-30T14:39:01.093Z,1.88
2022-09-30T14:41:29.746Z,2.20
2022-09-30T14:44:05.753Z,1.67
2022-09-30T14:46:37.515Z,2.22
2022-09-30T14:49:09.672Z,2.30
2022-09-30T14:51:47.889Z,1.83
2022-09-30T14:54:24.110Z,2.20
2022-09-30T14:56:54.732Z,2.42
2022-09-30T14:59:28.797Z,2.20
2022-09-30T15:02:16.285Z,2.55
2022-09-30T15:04:49.300Z,2.13
2022-09-30T15:07:16.906Z,2.80
2022-09-30T15:09:46.441Z,2.35
2022-09-30T15:12:13.777Z,3.22
2022-09-30T15:14:54.186Z,2.63
2022-09-30T15:17:36.969Z,2.67
2022-09-30T15:20:32.619Z,3.30
2022-09-30T15:23:03.614Z,3.53
2022-09-30T15:27:59.102Z,3.90
2022-09-30T15:30:29.348Z,3.45
2022-09-30T15:32:59.022Z,3.67
2022-09-30T15:35:26.721Z,3.90
2022-09-30T15:37:54.627Z,5.00
2022-09-30T15:40:42.684Z,3.38
2022-09-30T15:43:15.615Z,4.13
2022-09-30T15:45:45.371Z,3.25
2022-09-30T15:48:27.585Z,3.45
2022-09-30T15:50:57.612Z,4.15
2022-09-30T15:53:37.252Z,4.50
2022-09-30T15:56:30.855Z,4.60
2022-09-30T15:59:11.167Z,3.78
2022-09-30T16:01:49.355Z,3.60
2022-09-30T16:04:16.711Z,4.03
2022-09-30T16:07:09.857Z,3.90
2022-09-30T16:09:42.033Z,3.25
2022-09-30T16:12:12.409Z,4.10
2022-09-30T16:14:55.809Z,3.28
2022-09-30T16:17:37.804Z,4.38
2022-09-30T16:20:20.077Z,4.18
2022-09-30T16:22:48.205Z,4.55
2022-09-30T16:25:30.149Z,3.33
2022-09-30T16:28:01.609Z,2.92
2022-09-30T16:30:32.250Z,3.50
2022-09-30T16:33:04.897Z,2.78
2022-09-30T16:35:33.627Z,3.35
2022-09-30T16:38:03.753Z,3.08
2022-09-30T16:40:32.916Z,3.17
2022-09-30T16:43:03.262Z,3.42
2022-09-30T16:45:33.884Z,3.20
2022-09-30T16:48:11.584Z,2.72
2022-09-30T16:50:49.123Z,2.75
2022-09-30T16:53:16.533Z,3.08
2022-09-30T16:55:44.900Z,2.67
2022-09-30T16:58:15.355Z,2.75
2022-09-30T17:00:47.231Z,2.30
2022-09-30T17:03:17.343Z,2.47
2022-09-30T17:05:46.768Z,2.53
2022-09-30T17:08:15.930Z,2.83
2022-09-30T17:10:46.157Z,2.45
2022-09-30T17:13:16.263Z,2.65
2022-09-30T17:15:48.931Z,4.00
2022-09-30T17:18:17.502Z,2.78
2022-09-30T17:20:52.402Z,3.10
2022-09-30T17:23:21.538Z,3.00
2022-09-30T17:25:49.390Z,2.97
2022-09-30T17:28:17.697Z,4.30
2022-09-30T17:30:47.896Z,3.08
2022-09-30T17:33:16.162Z,3.50
2022-09-30T17:35:43.554Z,3.92
2022-09-30T17:38:13.401Z,3.30
2022-09-30T17:40:59.456Z,2.70
2022-09-30T17:43:26.978Z,2.65
2022-09-30T17:45:59.183Z,4.32
2022-09-30T17:48:26.876Z,2.60
2022-09-30T17:50:55.495Z,2.80
2022-09-30T17:53:23.835Z,2.90
2022-09-30T17:56:15.662Z,3.00
2022-09-30T17:58:47.840Z,2.80
2022-09-30T18:01:16.384Z,4.20
2022-09-30T18:03:45.117Z,3.00
2022-09-30T18:06:14.505Z,3.38
2022-09-30T18:08:42.063Z,3.05
2022-09-30T18:11:10.038Z,3.28
2022-09-30T18:13:37.463Z,2.45
2022-09-30T18:16:08.228Z,3.22
2022-09-30T18:18:35.973Z,3.05
2022-09-30T18:21:03.335Z,2.47
2022-09-30T18:23:30.718Z,2.70
2022-09-30T18:25:58.470Z,3.58
2022-09-30T18:28:26.447Z,2.85
2022-09-30T18:30:53.952Z,2.30
2022-09-30T18:33:22.330Z,2.53
2022-09-30T18:35:51.483Z,2.85
2022-09-30T18:38:19.622Z,2.42
2022-09-30T18:40:46.989Z,2.92
2022-09-30T18:43:14.657Z,2.90
2022-09-30T18:45:46.403Z,2.67
2022-09-30T18:48:14.547Z,2.45
2022-09-30T18:50:41.991Z,2.22
2022-09-30T18:53:12.685Z,2.42
2022-09-30T18:55:40.302Z,2.20
2022-09-30T18:58:07.645Z,2.30
2022-09-30T19:00:35.112Z,2.47
2022-09-30T19:03:02.519Z,1.90
2022-09-30T19:05:30.015Z,1.75
2022-09-30T19:07:57.390Z,2.22
2022-09-30T19:10:26.257Z,2.45
2022-09-30T19:12:53.660Z,3.25
2022-09-30T19:15:22.485Z,2.20
2022-09-30T19:17:51.094Z,2.10
2022-09-30T19:20:18.527Z,3.08
2022-09-30T19:22:46.851Z,2.08
2022-09-30T19:25:16.398Z,2.22
2022-09-30T19:27:44.584Z,1.95
2022-09-30T19:30:14.071Z,1.95
2022-09-30T19:32:41.653Z,2.00
2022-09-30T19:35:11.809Z,2.03
2022-09-30T19:37:42.972Z,1.67
2022-09-30T19:40:20.705Z,1.70
2022-09-30T19:42:50.108Z,1.65
2022-09-30T19:45:23.222Z,2.35
2022-09-30T19:47:52.711Z,1.58
2022-09-30T19:50:20.133Z,1.83
2022-09-30T19:52:55.758Z,2.00
2022-09-30T19:55:25.666Z,1.50
2022-09-30T19:57:53.639Z,1.60
2022-09-30T20:00:21.344Z,3.33
2022-09-30T20:02:48.752Z,2.00
2022-09-30T20:05:18.351Z,2.17
2022-09-30T20:07:45.832Z,1.58
2022-09-30T20:10:13.204Z,2.08
2022-09-30T20:12:40.579Z,1.50
2022-09-30T20:15:28.249Z,1.73
2022-09-30T20:17:55.829Z,1.38
2022-09-30T20:20:35.458Z,1.65
2022-09-30T20:23:03.604Z,1.00
2022-09-30T20:25:31.319Z,1.05
2022-09-30T20:27:58.855Z,1.35
2022-09-30T20:30:29.847Z,1.27
2022-09-30T20:35:25.998Z,1.40
2022-09-30T20:37:54.302Z,1.50
2022-09-30T20:40:21.874Z,1.17
2022-09-30T20:42:49.311Z,1.30
2022-09-30T20:45:18.134Z,1.35
2022-09-30T20:47:47.033Z,1.30
2022-09-30T20:50:14.537Z,1.30
2022-09-30T20:52:42.238Z,82.63
2022-09-30T20:55:10.063Z,1.20
2022-09-30T20:57:37.531Z,1.02
2022-09-30T21:00:05.205Z,1.23
2022-09-30T21:02:32.686Z,6.90
2022-09-30T21:05:01.069Z,1.20
2022-09-30T21:07:28.599Z,1.10
2022-09-30T21:09:56.053Z,0.98
2022-09-30T21:12:23.560Z,0.90
2022-09-30T21:14:50.985Z,1.02
2022-09-30T21:17:19.005Z,1.80
2022-09-30T21:19:46.326Z,0.90
2022-09-30T21:22:13.825Z,1.63
2022-09-30T21:24:41.192Z,0.82
2022-09-30T21:27:09.434Z,0.98
2022-09-30T21:29:36.828Z,0.73
2022-09-30T21:32:04.214Z,1.08
2022-09-30T21:34:32.094Z,1.00
2022-09-30T21:36:59.519Z,1.10
2022-09-30T21:39:26.995Z,1.20
2022-09-30T21:41:55.190Z,1.08
2022-09-30T21:44:22.566Z,1.05
2022-09-30T21:46:50.423Z,1.10
2022-09-30T21:49:20.474Z,1.15
2022-09-30T21:51:47.971Z,1.30
2022-09-30T21:54:15.416Z,1.67
2022-09-30T21:56:43.622Z,1.77
2022-09-30T21:59:12.735Z,1.65
2022-09-30T22:01:40.600Z,1.92
2022-09-30T22:04:08.325Z,1.98
2022-09-30T22:06:35.811Z,1.42
2022-09-30T22:09:03.752Z,1.30
2022-09-30T22:11:33.064Z,1.73
2022-09-30T22:14:00.909Z,1.88
2022-09-30T22:16:31.316Z,1.88
2022-09-30T22:19:00.857Z,2.10
2022-09-30T22:21:33.818Z,1.98
2022-09-30T22:24:03.047Z,1.80
2022-09-30T22:26:31.862Z,1.70
2022-09-30T22:29:01.908Z,1.92
2022-09-30T22:31:31.330Z,2.15
2022-09-30T22:34:20.462Z,1.80
2022-09-30T22:37:06.718Z,1.85
2022-09-30T22:39:34.844Z,2.22
2022-09-30T22:42:03.133Z,2.13
2022-09-30T22:44:35.279Z,2.13
2022-09-30T22:47:03.328Z,1.92
2022-09-30T22:49:33.820Z,2.30
2022-09-30T22:52:04.590Z,2.53
2022-09-30T22:54:33.698Z,2.10
2022-09-30T22:57:05.600Z,2.22
2022-09-30T22:59:33.480Z,2.08
2022-09-30T23:02:01.200Z,2.75
2022-09-30T23:04:29.393Z,2.60
2022-09-30T23:06:56.870Z,2.13
2022-09-30T23:09:25.022Z,2.28
2022-09-30T23:11:54.859Z,4.18
2022-09-30T23:14:22.744Z,2.92
2022-09-30T23:16:51.324Z,2.80
2022-09-30T23:19:19.808Z,2.70
2022-09-30T23:21:47.355Z,3.65
2022-09-30T23:24:15.022Z,3.17
2022-09-30T23:26:42.497Z,3.33
2022-09-30T23:29:14.066Z,4.22
2022-09-30T23:31:41.974Z,3.03
2022-09-30T23:34:09.657Z,2.63
2022-09-30T23:36:37.779Z,3.20
2022-09-30T23:39:20.888Z,3.45
2022-09-30T23:41:49.494Z,3.22
2022-09-30T23:44:20.457Z,3.40
2022-09-30T23:49:37.662Z,3.28
2022-09-30T23:54:39.874Z,3.53
2022-09-30T23:57:08.266Z,3.65
2022-09-30T23:59:35.721Z,3.38
